Time;durP1;ratioP1;P1;durP2;ratioP2;P2;SDS_P1;SDS_P2;PMS_P1;PMS_P2;Temp;Humidity;BMP_temperature;BMP_pressure;BME280_temperature;BME280_humidity;BME280_pressure;Samples;Min_cycle;Max_cycle;Signal;HPM_P1;HPM_P2
2021/11/13 00:01:22;;;;;;;10.82;5.28;;;9.80;93.20;;;;;;5004225;28;20022;-48
2021/11/13 00:03:47;;;;;;;13.48;6.38;;;9.90;93.20;;;;;;5012530;28;20026;-48
2021/11/13 00:06:13;;;;;;;16.50;6.20;;;9.90;93.20;;;;;;5011212;28;20383;-48
2021/11/13 00:08:39;;;;;;;8.15;4.20;;;9.90;93.20;;;;;;5011024;28;20057;-48
2021/11/13 00:11:05;;;;;;;6.18;4.13;;;9.90;93.30;;;;;;5009460;28;20037;-48
2021/11/13 00:13:31;;;;;;;9.32;5.13;;;9.90;93.30;;;;;;5011352;28;20481;-48
2021/11/13 00:15:57;;;;;;;10.52;4.63;;;9.80;93.20;;;;;;5008506;28;20036;-48
2021/11/13 00:18:22;;;;;;;11.18;5.45;;;9.90;93.20;;;;;;4992644;28;20070;-47
2021/11/13 00:20:50;;;;;;;14.13;6.18;;;9.90;93.20;;;;;;4993551;28;20110;-48
2021/11/13 00:23:17;;;;;;;11.18;5.78;;;9.80;93.00;;;;;;4993213;28;20041;-48
2021/11/13 00:25:43;;;;;;;10.65;5.80;;;9.90;93.30;;;;;;5011154;28;20330;-48
2021/11/13 00:28:08;;;;;;;11.30;6.85;;;9.90;93.20;;;;;;5011484;28;20029;-48
2021/11/13 00:30:34;;;;;;;11.20;6.05;;;9.90;93.20;;;;;;5010921;28;20474;-48
2021/11/13 00:33:00;;;;;;;14.15;5.95;;;9.90;93.20;;;;;;5011061;28;20022;-48
2021/11/13 00:35:25;;;;;;;10.02;5.57;;;9.90;93.30;;;;;;5010958;28;20061;-48
2021/11/13 00:37:52;;;;;;;11.13;5.70;;;9.90;93.20;;;;;;5011168;28;20281;-48
2021/11/13 00:40:18;;;;;;;11.10;5.78;;;9.90;93.30;;;;;;5010752;28;20056;-48
2021/11/13 00:42:45;;;;;;;12.15;6.15;;;9.80;93.30;;;;;;5009705;28;20030;-48
2021/11/13 00:45:11;;;;;;;12.68;6.38;;;9.90;93.30;;;;;;5010574;28;20117;-48
2021/11/13 00:47:37;;;;;;;15.32;6.35;;;9.80;93.30;;;;;;5011385;28;20034;-48
2021/11/13 00:50:06;;;;;;;11.57;5.68;;;9.80;93.30;;;;;;5011174;28;20045;-48
2021/11/13 00:52:32;;;;;;;12.05;5.72;;;9.90;93.30;;;;;;5011758;28;20037;-48
2021/11/13 00:54:58;;;;;;;8.13;4.93;;;9.90;93.30;;;;;;5010096;28;20037;-47
2021/11/13 00:57:24;;;;;;;10.13;4.65;;;9.90;93.30;;;;;;4998371;28;20584;-48
2021/11/13 00:59:49;;;;;;;8.00;4.50;;;9.80;93.30;;;;;;4991564;28;20038;-48
2021/11/13 01:02:15;;;;;;;7.95;4.32;;;9.90;93.30;;;;;;4992023;28;20026;-48
2021/11/13 01:04:41;;;;;;;7.15;4.78;;;9.80;93.30;;;;;;4991656;28;20026;-48
2021/11/13 01:07:06;;;;;;;9.90;4.70;;;9.90;93.30;;;;;;5007802;28;20030;-48
2021/11/13 01:09:32;;;;;;;9.13;4.40;;;9.90;93.50;;;;;;5010500;28;20037;-48
2021/11/13 01:11:58;;;;;;;5.57;3.95;;;9.90;93.40;;;;;;5005073;28;20132;-48
2021/11/13 01:14:26;;;;;;;8.88;4.35;;;9.80;93.70;;;;;;4991789;28;20349;-48
2021/11/13 01:16:52;;;;;;;7.90;4.28;;;9.80;93.40;;;;;;4990628;28;20526;-48
2021/11/13 01:19:18;;;;;;;8.02;4.22;;;9.90;93.40;;;;;;4991525;28;20054;-48
2021/11/13 01:21:43;;;;;;;7.53;4.35;;;9.90;93.40;;;;;;5004559;28;20119;-48
2021/11/13 01:24:09;;;;;;;4.22;3.30;;;9.90;93.40;;;;;;5002564;28;20109;-48
2021/11/13 01:26:35;;;;;;;6.03;4.00;;;9.90;93.40;;;;;;5010062;28;20026;-48
2021/11/13 01:29:01;;;;;;;8.50;4.82;;;9.90;93.40;;;;;;5010949;28;20014;-48
2021/11/13 01:31:27;;;;;;;9.05;4.75;;;9.90;93.40;;;;;;5010932;28;20054;-48
2021/11/13 01:33:56;;;;;;;9.02;4.78;;;9.90;93.40;;;;;;5009214;28;20070;-48
2021/11/13 01:36:23;;;;;;;9.73;5.38;;;9.90;93.40;;;;;;5009912;28;20113;-48
2021/11/13 01:38:49;;;;;;;8.48;4.30;;;9.90;93.50;;;;;;5010102;28;20026;-47
2021/11/13 01:41:14;;;;;;;10.57;5.30;;;9.80;93.40;;;;;;5010521;28;20100;-48
2021/11/13 01:43:41;;;;;;;12.27;5.50;;;9.90;93.50;;;;;;5009443;28;20120;-48
2021/11/13 01:46:09;;;;;;;11.48;5.60;;;9.90;93.50;;;;;;5010216;28;20022;-48
2021/11/13 01:48:35;;;;;;;8.93;5.03;;;9.90;93.50;;;;;;5009990;28;20117;-48
2021/11/13 01:51:01;;;;;;;9.95;4.85;;;9.90;93.50;;;;;;4998935;28;20070;-48
2021/11/13 01:53:28;;;;;;;10.60;4.60;;;9.90;93.50;;;;;;4991433;28;20046;-48
2021/11/13 01:55:56;;;;;;;12.32;5.60;;;9.90;93.50;;;;;;5007570;28;20040;-48
2021/11/13 01:58:23;;;;;;;9.60;4.45;;;9.80;93.50;;;;;;5010527;28;20483;-48
2021/11/13 02:00:53;;;;;;;14.27;4.85;;;9.90;93.60;;;;;;5010848;28;20047;-48
2021/11/13 02:03:20;;;;;;;8.60;5.17;;;9.90;93.50;;;;;;5010605;28;20072;-48
2021/11/13 02:05:48;;;;;;;11.52;5.50;;;9.90;93.50;;;;;;5008354;28;20022;-48
2021/11/13 02:08:13;;;;;;;12.95;4.95;;;9.80;93.50;;;;;;5010715;28;20057;-48
2021/11/13 02:10:39;;;;;;;8.43;4.70;;;9.80;93.50;;;;;;5009468;28;20072;-48
2021/11/13 02:13:05;;;;;;;7.80;4.57;;;9.90;93.60;;;;;;5014493;28;20529;-48
2021/11/13 02:15:32;;;;;;;7.72;4.45;;;9.90;93.60;;;;;;5011992;28;20361;-48
2021/11/13 02:17:59;;;;;;;7.07;4.07;;;9.90;93.60;;;;;;5014393;28;20060;-48
2021/11/13 02:20:36;;;;;;;6.97;4.32;;;9.90;93.50;;;;;;5014154;28;20036;-48
2021/11/13 02:23:14;;;;;;;6.75;4.03;;;9.90;93.60;;;;;;5013922;28;20030;-48
2021/11/13 02:25:40;;;;;;;10.43;3.85;;;9.90;93.60;;;;;;5004665;28;20034;-48
2021/11/13 02:28:10;;;;;;;8.68;4.15;;;9.90;93.60;;;;;;5013311;28;20105;-48
2021/11/13 02:30:36;;;;;;;9.48;4.63;;;9.90;93.60;;;;;;5014254;28;20068;-48
2021/11/13 02:33:02;;;;;;;7.72;5.07;;;9.90;93.60;;;;;;5013942;28;20105;-48
2021/11/13 02:35:31;;;;;;;9.07;4.10;;;9.90;93.60;;;;;;5013512;28;20026;-48
2021/11/13 02:37:58;;;;;;;8.18;4.47;;;9.90;93.60;;;;;;5012096;28;20033;-48
2021/11/13 02:40:24;;;;;;;8.23;4.28;;;9.90;93.60;;;;;;5013495;28;20033;-48
2021/11/13 02:42:51;;;;;;;12.02;5.43;;;9.90;93.60;;;;;;5000303;28;20109;-48
2021/11/13 02:45:17;;;;;;;6.32;3.95;;;9.90;93.60;;;;;;5009410;28;20230;-48
2021/11/13 02:47:47;;;;;;;10.55;3.97;;;9.90;93.60;;;;;;5012184;28;20278;-48
2021/11/13 02:50:15;;;;;;;7.03;3.67;;;9.90;93.60;;;;;;5013851;28;20395;-48
2021/11/13 02:52:56;;;;;;;8.40;4.07;;;9.90;93.60;;;;;;5013514;28;20037;-48
2021/11/13 02:55:22;;;;;;;9.52;3.55;;;9.90;93.60;;;;;;5011692;28;20034;-48
2021/11/13 02:57:48;;;;;;;6.15;4.18;;;9.90;93.60;;;;;;5003576;28;20373;-48
2021/11/13 03:00:17;;;;;;;9.35;4.45;;;9.90;93.60;;;;;;4993827;28;20022;-48
2021/11/13 03:02:43;;;;;;;9.15;4.93;;;9.90;93.60;;;;;;4993798;28;20473;-47
2021/11/13 03:05:27;;;;;;;6.68;3.75;;;9.90;93.60;;;;;;4994272;28;20044;-48
2021/11/13 03:07:54;;;;;;;3.78;3.15;;;9.90;93.60;;;;;;5010973;28;20346;-48
2021/11/13 03:10:21;;;;;;;8.02;4.22;;;9.90;93.60;;;;;;5012583;28;20109;-48
2021/11/13 03:12:47;;;;;;;6.25;4.13;;;9.90;93.60;;;;;;4999571;28;20343;-48
2021/11/13 03:15:16;;;;;;;3.85;2.30;;;9.90;93.60;;;;;;4993292;28;20037;-47
2021/11/13 03:17:43;;;;;;;10.63;5.38;;;9.90;93.60;;;;;;4993248;28;20030;-47
2021/11/13 03:20:11;;;;;;;8.57;4.22;;;9.90;93.60;;;;;;5009947;28;20049;-48
2021/11/13 03:22:38;;;;;;;12.25;4.55;;;9.90;93.60;;;;;;5012424;28;20030;-48
2021/11/13 03:25:07;;;;;;;6.10;3.72;;;9.90;93.60;;;;;;5011873;28;20096;-47
2021/11/13 03:27:34;;;;;;;9.50;4.28;;;9.90;93.60;;;;;;5012321;28;20038;-47
2021/11/13 03:30:01;;;;;;;7.60;3.95;;;9.90;93.60;;;;;;5011409;28;20515;-48
2021/11/13 03:32:26;;;;;;;11.32;5.55;;;9.90;93.60;;;;;;5013006;28;20056;-48
2021/11/13 03:34:52;;;;;;;8.43;4.82;;;9.90;93.70;;;;;;5012130;28;20022;-48
2021/11/13 03:37:18;;;;;;;7.95;3.40;;;9.90;93.60;;;;;;5010663;28;20046;-48
2021/11/13 03:39:43;;;;;;;9.35;4.72;;;9.90;93.60;;;;;;5010885;28;20032;-48
2021/11/13 03:42:09;;;;;;;6.03;4.03;;;9.90;93.70;;;;;;5011965;28;20053;-48
2021/11/13 03:44:35;;;;;;;15.20;4.82;;;9.90;93.60;;;;;;5012854;28;20025;-48
2021/11/13 03:47:00;;;;;;;9.57;4.47;;;9.90;93.60;;;;;;5011922;28;20033;-48
2021/11/13 03:49:26;;;;;;;7.60;3.97;;;9.90;93.70;;;;;;5003923;28;20022;-48
2021/11/13 03:51:52;;;;;;;8.38;4.80;;;9.90;93.70;;;;;;4996393;28;20442;-47
2021/11/13 03:54:17;;;;;;;13.00;5.28;;;9.90;93.70;;;;;;4993195;28;20030;-48
2021/11/13 03:56:43;;;;;;;9.88;4.68;;;9.90;93.70;;;;;;5006807;28;20061;-47
2021/11/13 03:59:09;;;;;;;7.50;3.80;;;9.90;93.70;;;;;;5012315;28;20400;-48
2021/11/13 04:01:35;;;;;;;5.68;4.00;;;9.90;93.70;;;;;;5010495;28;20241;-48
2021/11/13 04:04:01;;;;;;;10.68;4.63;;;9.90;93.70;;;;;;5012907;28;20329;-48
2021/11/13 04:06:27;;;;;;;8.90;4.68;;;9.90;93.70;;;;;;5011227;28;20084;-48
2021/11/13 04:08:52;;;;;;;9.45;4.28;;;9.90;93.70;;;;;;5011393;28;20049;-48
2021/11/13 04:11:18;;;;;;;9.00;3.95;;;9.90;93.60;;;;;;5009767;28;20458;-47
2021/11/13 04:13:44;;;;;;;9.93;5.15;;;9.90;93.70;;;;;;5011993;28;20057;-47
2021/11/13 04:16:09;;;;;;;8.65;5.00;;;9.90;93.70;;;;;;5011186;28;20026;-48
2021/11/13 04:18:35;;;;;;;11.15;4.82;;;9.90;93.70;;;;;;5001605;28;20027;-48
2021/11/13 04:21:02;;;;;;;8.73;4.97;;;9.90;93.70;;;;;;4992599;28;20037;-48
2021/11/13 04:23:29;;;;;;;7.95;4.10;;;9.90;93.70;;;;;;4993139;28;20524;-47
2021/11/13 04:25:55;;;;;;;9.13;4.75;;;9.90;93.70;;;;;;4997765;28;20033;-48
2021/11/13 04:28:21;;;;;;;7.97;4.43;;;9.90;93.70;;;;;;5010979;28;20486;-48
2021/11/13 04:30:47;;;;;;;6.53;3.47;;;9.90;93.70;;;;;;5012119;28;20109;-48
2021/11/13 04:33:13;;;;;;;7.22;4.30;;;9.90;93.70;;;;;;5009590;28;20528;-48
2021/11/13 04:38:32;;;;;;;7.00;3.85;;;9.90;93.70;;;;;;4969389;28;20054;-48
2021/11/13 04:41:00;;;;;;;8.05;4.47;;;9.90;93.70;;;;;;4975227;28;20133;-48
2021/11/13 04:43:26;;;;;;;7.45;3.80;;;9.90;93.70;;;;;;4987760;28;20121;-47
2021/11/13 04:45:52;;;;;;;8.75;4.55;;;9.90;93.70;;;;;;4987667;28;20023;-47
2021/11/13 04:48:17;;;;;;;9.18;4.15;;;9.90;93.70;;;;;;4989243;28;20093;-48
2021/11/13 04:50:43;;;;;;;10.95;5.13;;;9.90;93.70;;;;;;4989014;28;20034;-47
2021/11/13 04:53:09;;;;;;;6.10;3.97;;;9.90;93.70;;;;;;4988458;28;20031;-47
2021/11/13 04:55:34;;;;;;;9.25;4.03;;;9.90;93.70;;;;;;4986556;28;20039;-48
2021/11/13 04:58:00;;;;;;;8.07;4.07;;;9.90;93.70;;;;;;4988878;28;20057;-47
2021/11/13 05:00:29;;;;;;;7.65;4.05;;;9.90;93.60;;;;;;4988163;28;20339;-47
2021/11/13 05:02:56;;;;;;;7.20;4.43;;;9.90;93.70;;;;;;4981222;28;20133;-47
2021/11/13 05:05:22;;;;;;;8.88;4.70;;;9.90;93.70;;;;;;4985527;28;20493;-47
2021/11/13 05:07:48;;;;;;;7.28;4.22;;;9.90;93.70;;;;;;4989034;28;20038;-47
2021/11/13 05:10:15;;;;;;;9.75;4.95;;;9.90;93.70;;;;;;4988567;28;20065;-48
2021/11/13 05:12:41;;;;;;;8.15;4.28;;;9.90;93.70;;;;;;4986177;28;20042;-47
2021/11/13 05:15:08;;;;;;;6.35;4.40;;;9.90;93.70;;;;;;4988723;28;20089;-47
2021/11/13 05:17:34;;;;;;;8.48;4.18;;;9.90;93.70;;;;;;4991727;28;20030;-47
2021/11/13 05:20:01;;;;;;;9.05;4.18;;;9.90;93.70;;;;;;4991699;28;20057;-48
2021/11/13 05:22:27;;;;;;;10.38;3.63;;;9.90;93.70;;;;;;4992759;28;20703;-47
2021/11/13 05:24:52;;;;;;;11.15;4.15;;;9.90;93.70;;;;;;4991286;28;20069;-48
2021/11/13 05:27:18;;;;;;;8.77;4.63;;;9.90;93.70;;;;;;5003735;28;20324;-48
2021/11/13 05:29:44;;;;;;;8.65;4.07;;;9.90;93.70;;;;;;5010818;28;20453;-48
2021/11/13 05:32:10;;;;;;;10.77;4.82;;;9.90;93.70;;;;;;5009394;28;20510;-47
2021/11/13 05:34:35;;;;;;;8.70;4.18;;;9.90;93.70;;;;;;5010890;28;20536;-47
2021/11/13 05:37:01;;;;;;;8.57;4.32;;;9.90;93.70;;;;;;5010122;28;20057;-47
2021/11/13 05:39:27;;;;;;;7.90;4.75;;;9.90;93.70;;;;;;5009806;28;20046;-47
2021/11/13 05:41:53;;;;;;;7.43;3.97;;;9.90;93.70;;;;;;5009765;28;20038;-47
2021/11/13 05:44:18;;;;;;;8.93;5.03;;;9.90;93.60;;;;;;5009587;28;20025;-48
2021/11/13 05:46:44;;;;;;;9.32;4.63;;;9.90;93.60;;;;;;5013447;28;20026;-47
2021/11/13 05:49:10;;;;;;;8.90;4.13;;;9.90;93.60;;;;;;5014492;28;20022;-48
2021/11/13 05:51:36;;;;;;;19.13;4.88;;;9.80;93.60;;;;;;5015119;28;20121;-47
2021/11/13 05:54:02;;;;;;;12.60;5.78;;;9.80;93.70;;;;;;5013347;28;20032;-47
2021/11/13 05:56:28;;;;;;;7.47;4.10;;;9.90;93.70;;;;;;5013327;28;20088;-48
2021/11/13 05:58:53;;;;;;;7.95;4.30;;;9.90;93.60;;;;;;5014775;28;20033;-48
2021/11/13 06:01:20;;;;;;;9.68;5.10;;;9.90;93.60;;;;;;5012682;28;20033;-47
2021/11/13 06:03:45;;;;;;;14.02;5.97;;;9.90;93.60;;;;;;5012836;28;20026;-48
2021/11/13 06:06:11;;;;;;;10.57;5.93;;;9.90;93.60;;;;;;5012916;28;20029;-48
2021/11/13 06:08:36;;;;;;;15.82;6.45;;;9.90;93.60;;;;;;5014186;28;20461;-48
2021/11/13 06:11:02;;;;;;;15.57;5.70;;;9.80;93.60;;;;;;5014120;28;20045;-48
2021/11/13 06:13:28;;;;;;;14.27;6.43;;;9.90;93.60;;;;;;5013775;28;20038;-48
2021/11/13 06:15:54;;;;;;;12.40;5.63;;;9.80;93.70;;;;;;5011880;28;20109;-47
2021/11/13 06:18:20;;;;;;;11.57;6.15;;;9.80;93.60;;;;;;5014086;28;20550;-47
2021/11/13 06:20:45;;;;;;;11.20;5.72;;;9.80;93.70;;;;;;5014358;28;20096;-48
2021/11/13 06:23:11;;;;;;;13.52;5.20;;;9.80;93.70;;;;;;5013998;28;20492;-47
2021/11/13 06:25:37;;;;;;;17.63;6.82;;;9.90;93.70;;;;;;5011966;28;20022;-47
2021/11/13 06:28:03;;;;;;;16.67;6.28;;;9.90;93.70;;;;;;5012634;28;20030;-47
2021/11/13 06:30:29;;;;;;;12.73;5.43;;;9.90;93.70;;;;;;5013414;28;20342;-47
2021/11/13 06:32:55;;;;;;;16.85;6.78;;;9.80;93.70;;;;;;5013836;28;20037;-48
2021/11/13 06:35:21;;;;;;;15.75;7.18;;;9.80;93.70;;;;;;5010907;28;20289;-47
2021/11/13 06:37:47;;;;;;;11.80;5.40;;;9.90;93.70;;;;;;5013015;28;20045;-48
2021/11/13 06:40:15;;;;;;;16.33;6.35;;;9.90;93.70;;;;;;4993724;28;20161;-48
2021/11/13 06:42:41;;;;;;;13.57;5.78;;;9.90;93.70;;;;;;5005161;28;20037;-48
2021/11/13 06:45:09;;;;;;;15.02;5.40;;;9.90;93.70;;;;;;5011475;28;20041;-48
2021/11/13 06:47:36;;;;;;;17.73;7.32;;;9.90;94.10;;;;;;4994164;28;20029;-48
2021/11/13 06:50:03;;;;;;;16.45;6.55;;;9.80;93.70;;;;;;4994392;28;20046;-48
2021/11/13 06:52:29;;;;;;;14.02;6.88;;;9.80;93.70;;;;;;4994015;28;20535;-48
2021/11/13 06:54:55;;;;;;;16.27;6.40;;;9.90;93.70;;;;;;4994349;28;20022;-47
2021/11/13 06:57:21;;;;;;;18.33;7.63;;;9.90;93.70;;;;;;5000537;28;20281;-47
2021/11/13 06:59:46;;;;;;;18.92;6.88;;;9.90;93.70;;;;;;5013918;28;20030;-47
2021/11/13 07:02:12;;;;;;;19.10;7.03;;;9.80;93.70;;;;;;5007677;28;20350;-48
2021/11/13 07:04:37;;;;;;;21.90;7.95;;;9.90;93.80;;;;;;4993992;28;20033;-48
2021/11/13 07:07:03;;;;;;;12.05;5.25;;;9.90;93.80;;;;;;5004209;28;20026;-48
2021/11/13 07:09:29;;;;;;;23.35;7.25;;;9.90;93.80;;;;;;4993679;28;20056;-48
2021/11/13 07:11:55;;;;;;;20.58;7.78;;;9.90;93.80;;;;;;4995926;28;20386;-48
2021/11/13 07:14:21;;;;;;;24.52;7.40;;;9.90;93.80;;;;;;5011076;28;20121;-48
2021/11/13 07:16:46;;;;;;;14.95;6.75;;;9.90;93.80;;;;;;4990262;28;20484;-48
2021/11/13 07:19:12;;;;;;;16.50;7.20;;;9.90;93.80;;;;;;4994023;28;20042;-47
2021/11/13 07:21:39;;;;;;;16.80;7.70;;;9.90;93.80;;;;;;4993185;28;20466;-47
2021/11/13 07:24:06;;;;;;;21.25;7.40;;;9.90;93.80;;;;;;4993619;28;20026;-48
2021/11/13 07:26:32;;;;;;;10.07;4.65;;;9.90;93.80;;;;;;4992434;28;20488;-47
2021/11/13 07:29:03;;;;;;;15.68;6.95;;;9.90;93.80;;;;;;5009999;28;20113;-48
2021/11/13 07:31:29;;;;;;;11.32;5.57;;;9.90;93.80;;;;;;5007622;28;20339;-47
2021/11/13 07:33:55;;;;;;;13.68;5.80;;;9.90;93.80;;;;;;4993527;28;20080;-48
2021/11/13 07:36:21;;;;;;;13.52;5.13;;;9.90;93.90;;;;;;4992583;28;20049;-46
2021/11/13 07:38:46;;;;;;;10.32;5.65;;;9.90;93.60;;;;;;4994074;28;20491;-46
2021/11/13 07:41:14;;;;;;;14.40;6.85;;;9.80;93.50;;;;;;4992828;28;20088;-46
2021/11/13 07:43:40;;;;;;;12.60;6.13;;;9.80;93.40;;;;;;5008047;28;20070;-46
2021/11/13 07:46:06;;;;;;;13.75;6.32;;;9.90;93.30;;;;;;5012139;28;20022;-46
2021/11/13 07:48:32;;;;;;;14.30;6.50;;;9.90;93.30;;;;;;4996377;28;20472;-46
2021/11/13 07:50:58;;;;;;;12.90;6.40;;;9.90;93.30;;;;;;5008655;28;20033;-46
2021/11/13 07:53:24;;;;;;;13.48;6.03;;;9.90;93.40;;;;;;5012006;28;20461;-47
2021/11/13 07:55:50;;;;;;;14.95;6.82;;;9.90;93.40;;;;;;5007577;28;20042;-46
2021/11/13 07:58:16;;;;;;;14.77;6.20;;;9.90;93.40;;;;;;5003263;28;20038;-46
2021/11/13 08:00:43;;;;;;;19.38;8.05;;;9.90;93.40;;;;;;5010626;28;20017;-46
2021/11/13 08:03:09;;;;;;;14.90;6.93;;;9.90;93.40;;;;;;5012267;28;20022;-47
2021/11/13 08:05:35;;;;;;;19.60;6.18;;;9.90;93.50;;;;;;5011562;28;20365;-46
2021/11/13 08:08:00;;;;;;;18.58;6.70;;;9.90;93.50;;;;;;5011060;28;20342;-46
2021/11/13 08:10:26;;;;;;;15.75;6.60;;;9.90;93.60;;;;;;5010906;28;20353;-47
2021/11/13 08:12:52;;;;;;;13.02;5.93;;;9.90;93.60;;;;;;4998531;28;20040;-46
2021/11/13 08:15:18;;;;;;;16.17;7.13;;;9.90;93.60;;;;;;4994740;28;20022;-46
2021/11/13 08:17:44;;;;;;;17.60;7.25;;;9.90;93.70;;;;;;4992439;28;20416;-46
2021/11/13 08:20:12;;;;;;;17.23;6.95;;;9.90;93.70;;;;;;4992574;28;20353;-46
2021/11/13 08:22:41;;;;;;;19.80;7.15;;;9.90;93.70;;;;;;4993139;28;20026;-47
2021/11/13 08:25:08;;;;;;;20.42;7.70;;;9.90;93.80;;;;;;4992022;28;20018;-46
2021/11/13 08:27:34;;;;;;;14.73;6.60;;;9.90;93.90;;;;;;4994840;28;20100;-47
2021/11/13 08:30:00;;;;;;;13.95;6.72;;;9.90;93.90;;;;;;5011760;28;20029;-46
2021/11/13 08:32:26;;;;;;;15.48;7.32;;;9.90;93.90;;;;;;5009930;28;20113;-47
2021/11/13 08:34:52;;;;;;;18.55;8.52;;;9.90;93.90;;;;;;5011178;28;20110;-47
2021/11/13 08:37:18;;;;;;;16.25;7.32;;;10.00;94.00;;;;;;5010471;28;20030;-47
2021/11/13 08:39:44;;;;;;;17.60;7.07;;;9.90;94.00;;;;;;5012249;28;20383;-46
2021/11/13 08:42:12;;;;;;;11.00;4.95;;;9.90;94.00;;;;;;5011238;28;20022;-46
2021/11/13 08:44:40;;;;;;;15.95;7.30;;;9.90;94.00;;;;;;5010547;28;20121;-46
2021/11/13 08:47:08;;;;;;;17.45;7.70;;;9.90;94.00;;;;;;5010940;28;20026;-46
2021/11/13 08:49:35;;;;;;;16.30;6.18;;;9.90;94.10;;;;;;5006759;28;20034;-47
2021/11/13 08:52:01;;;;;;;18.75;7.30;;;9.90;94.10;;;;;;4991818;28;20109;-46
2021/11/13 08:54:27;;;;;;;19.33;7.60;;;9.90;94.10;;;;;;4992888;28;20125;-47
2021/11/13 08:56:52;;;;;;;17.88;7.28;;;10.00;94.10;;;;;;4990960;28;20039;-47
2021/11/13 08:59:18;;;;;;;15.15;6.68;;;9.90;94.10;;;;;;5006829;28;20076;-46
2021/11/13 09:01:44;;;;;;;18.40;7.80;;;10.00;94.10;;;;;;5011404;28;20030;-47
2021/11/13 09:04:11;;;;;;;18.92;8.65;;;10.00;94.10;;;;;;5009406;28;20149;-46
2021/11/13 09:06:37;;;;;;;16.85;7.93;;;10.00;94.20;;;;;;5010380;28;20044;-46
2021/11/13 09:09:04;;;;;;;18.27;7.93;;;10.00;94.20;;;;;;5011169;28;20026;-46
2021/11/13 09:11:34;;;;;;;15.60;8.18;;;10.00;94.20;;;;;;5011384;28;20022;-46
2021/11/13 09:14:02;;;;;;;19.63;7.68;;;10.00;94.20;;;;;;5010570;28;20465;-46
2021/11/13 09:16:27;;;;;;;13.73;5.82;;;10.00;94.20;;;;;;4992266;28;20373;-47
2021/11/13 09:18:54;;;;;;;7.10;3.70;;;10.00;94.20;;;;;;4991452;28;20045;-47
2021/11/13 09:21:21;;;;;;;8.05;3.95;;;10.00;94.30;;;;;;5009103;28;20453;-46
2021/11/13 09:23:48;;;;;;;7.47;5.00;;;10.00;94.30;;;;;;5011163;28;20034;-46
2021/11/13 09:26:14;;;;;;;8.38;3.83;;;10.00;94.30;;;;;;5009387;28;20091;-46
2021/11/13 09:28:40;;;;;;;11.68;4.82;;;10.00;94.30;;;;;;5010433;28;20033;-47
2021/11/13 09:31:07;;;;;;;7.05;3.75;;;10.00;94.30;;;;;;5011194;28;20022;-46
2021/11/13 09:33:33;;;;;;;6.32;4.32;;;10.00;94.30;;;;;;5009761;28;20033;-46
2021/11/13 09:36:00;;;;;;;6.90;3.20;;;10.00;94.40;;;;;;4992139;28;20030;-46
2021/11/13 09:38:36;;;;;;;9.45;5.15;;;10.00;94.30;;;;;;4990100;28;20049;-47
2021/11/13 09:41:05;;;;;;;9.35;4.72;;;10.00;94.30;;;;;;4990867;28;20434;-47
2021/11/13 09:43:32;;;;;;;7.70;3.85;;;10.00;94.30;;;;;;4997417;28;20030;-47
2021/11/13 09:46:00;;;;;;;8.23;4.90;;;10.00;94.30;;;;;;5010259;28;20030;-46
2021/11/13 09:48:28;;;;;;;6.38;3.17;;;10.00;94.30;;;;;;5006283;28;21551;-46
2021/11/13 09:50:53;;;;;;;10.75;4.55;;;10.00;94.30;;;;;;5000739;28;20054;-46
2021/11/13 09:53:21;;;;;;;6.20;3.28;;;10.00;94.40;;;;;;4998846;28;20417;-46
2021/11/13 09:55:48;;;;;;;9.82;3.85;;;10.00;94.40;;;;;;5019646;28;20028;-47
2021/11/13 09:58:14;;;;;;;6.90;3.90;;;10.00;94.40;;;;;;5013717;28;20056;-47
2021/11/13 10:00:41;;;;;;;4.72;3.05;;;10.00;94.40;;;;;;5010222;28;20028;-47
2021/11/13 10:03:07;;;;;;;4.68;2.78;;;10.00;94.40;;;;;;5010794;28;20034;-46
2021/11/13 10:05:33;;;;;;;6.38;3.05;;;10.10;94.40;;;;;;5009902;28;20026;-46
2021/11/13 10:07:59;;;;;;;5.20;3.38;;;10.00;94.40;;;;;;5007004;28;20081;-46
2021/11/13 10:10:30;;;;;;;6.80;3.72;;;10.00;94.40;;;;;;4990595;28;20334;-46
2021/11/13 10:12:56;;;;;;;7.47;4.07;;;10.10;94.50;;;;;;4991166;28;20109;-47
2021/11/13 10:15:34;;;;;;;4.60;3.42;;;10.10;94.50;;;;;;5011705;28;20113;-46
2021/11/13 10:18:15;;;;;;;6.75;3.35;;;10.00;94.40;;;;;;5025674;28;20091;-47
2021/11/13 10:20:45;;;;;;;8.88;3.78;;;10.10;94.50;;;;;;4990867;28;20041;-46
2021/11/13 10:23:37;;;;;;;6.65;3.40;;;10.00;94.50;;;;;;5002554;28;20522;-47
2021/11/13 10:26:08;;;;;;;7.07;3.88;;;10.00;94.50;;;;;;5025399;28;20475;-46
2021/11/13 10:28:50;;;;;;;6.75;4.43;;;10.10;94.60;;;;;;5022871;28;20046;-46
2021/11/13 10:31:23;;;;;;;6.97;3.75;;;10.00;94.60;;;;;;4990748;28;20034;-46
2021/11/13 10:33:50;;;;;;;7.07;3.97;;;10.10;94.60;;;;;;5021400;28;20461;-47
2021/11/13 10:36:53;;;;;;;5.55;3.42;;;10.10;94.60;;;;;;5022981;28;20055;-46
2021/11/13 10:39:23;;;;;;;8.73;3.67;;;10.10;94.60;;;;;;5019470;28;20042;-46
2021/11/13 10:41:51;;;;;;;7.45;4.20;;;10.10;94.60;;;;;;5021966;28;20515;-47
2021/11/13 10:44:23;;;;;;;8.48;3.75;;;10.10;94.70;;;;;;5018099;28;20065;-46
2021/11/13 10:46:50;;;;;;;6.82;3.45;;;10.10;94.60;;;;;;5023564;28;20507;-46
2021/11/13 10:49:16;;;;;;;8.38;4.60;;;10.10;94.70;;;;;;5022926;28;20029;-47
2021/11/13 10:51:57;;;;;;;6.82;3.95;;;10.10;94.70;;;;;;5020428;28;20456;-46
2021/11/13 10:54:24;;;;;;;7.60;3.25;;;10.10;94.70;;;;;;5011217;28;20037;-46
2021/11/13 10:56:55;;;;;;;7.72;4.15;;;10.10;94.70;;;;;;5017096;28;20029;-46
2021/11/13 10:59:28;;;;;;;12.73;4.70;;;10.10;94.70;;;;;;5013109;28;20048;-46
2021/11/13 11:01:58;;;;;;;10.73;5.43;;;10.10;94.70;;;;;;5020924;28;20021;-46
2021/11/13 11:04:25;;;;;;;7.55;4.97;;;10.10;94.80;;;;;;5015948;28;20036;-47
2021/11/13 11:07:14;;;;;;;8.68;4.60;;;10.10;94.80;;;;;;5012294;28;20326;-46
2021/11/13 11:09:43;;;;;;;11.52;4.78;;;10.10;94.80;;;;;;4993864;28;20109;-47
2021/11/13 11:12:11;;;;;;;8.73;5.30;;;10.10;94.80;;;;;;4994712;28;20034;-47
2021/11/13 11:14:40;;;;;;;5.97;3.80;;;10.10;94.60;;;;;;5001880;28;20029;-47
2021/11/13 11:17:14;;;;;;;9.98;4.20;;;10.10;94.80;;;;;;5011760;28;20034;-47
2021/11/13 11:19:48;;;;;;;7.68;3.58;;;10.10;94.70;;;;;;5011690;28;20049;-47
2021/11/13 11:22:20;;;;;;;8.75;5.28;;;10.10;94.70;;;;;;5012962;28;20357;-47
2021/11/13 11:24:57;;;;;;;6.80;3.90;;;10.10;94.80;;;;;;5013347;28;20022;-47
2021/11/13 11:27:49;;;;;;;9.65;4.28;;;10.10;94.80;;;;;;5012840;28;20033;-47
2021/11/13 11:30:20;;;;;;;7.78;4.07;;;10.10;94.80;;;;;;5007374;28;20122;-48
2021/11/13 11:32:49;;;;;;;7.10;4.32;;;10.10;94.90;;;;;;5013125;28;20057;-47
2021/11/13 11:35:20;;;;;;;8.35;4.53;;;10.10;94.90;;;;;;4992827;28;20114;-47
2021/11/13 11:37:50;;;;;;;9.88;4.03;;;10.10;94.90;;;;;;4993519;28;20402;-47
2021/11/13 11:40:21;;;;;;;7.47;4.22;;;10.10;94.90;;;;;;4994020;28;20096;-48
2021/11/13 11:42:48;;;;;;;10.25;4.38;;;10.10;95.00;;;;;;4992864;28;20037;-47
2021/11/13 11:45:18;;;;;;;13.50;6.03;;;10.10;95.00;;;;;;5003449;28;20057;-47
2021/11/13 11:47:47;;;;;;;11.63;5.43;;;10.10;95.40;;;;;;5012577;28;20380;-47
2021/11/13 11:50:15;;;;;;;13.57;4.82;;;10.10;95.10;;;;;;5010664;28;20277;-48
2021/11/13 11:52:44;;;;;;;6.88;4.13;;;10.10;95.10;;;;;;5012116;28;20029;-47
2021/11/13 11:55:12;;;;;;;5.53;3.22;;;10.20;95.10;;;;;;5011481;28;20030;-47
2021/11/13 11:57:44;;;;;;;8.50;5.15;;;10.10;95.10;;;;;;5012491;28;20037;-47
2021/11/13 12:00:15;;;;;;;9.10;4.55;;;10.10;95.10;;;;;;5011033;28;20096;-48
2021/11/13 12:02:46;;;;;;;14.38;3.60;;;10.20;95.20;;;;;;5012596;28;20029;-48
2021/11/13 12:05:21;;;;;;;11.07;4.70;;;10.10;95.20;;;;;;5011089;28;20547;-47
2021/11/13 12:07:50;;;;;;;6.07;3.38;;;10.20;95.20;;;;;;5012067;28;20427;-48
2021/11/13 12:10:22;;;;;;;10.43;4.28;;;10.20;95.20;;;;;;5011864;28;20469;-47
2021/11/13 12:13:11;;;;;;;15.65;4.32;;;10.20;95.20;;;;;;5009507;28;20084;-47
2021/11/13 12:16:00;;;;;;;11.23;5.35;;;10.20;95.20;;;;;;5010548;28;20038;-47
2021/11/13 12:18:26;;;;;;;13.80;5.25;;;10.20;95.20;;;;;;5019713;28;20044;-46
2021/11/13 12:21:04;;;;;;;7.80;3.95;;;10.20;95.30;;;;;;5022313;28;20033;-47
2021/11/13 12:23:38;;;;;;;11.88;4.00;;;10.20;95.30;;;;;;5019736;28;20022;-47
2021/11/13 12:26:21;;;;;;;10.35;5.78;;;10.20;95.30;;;;;;5018942;28;20038;-47
2021/11/13 12:28:46;;;;;;;11.52;5.18;;;10.20;95.30;;;;;;5007031;28;20052;-47
2021/11/13 12:31:22;;;;;;;10.68;3.88;;;10.20;95.30;;;;;;5021452;28;20060;-46
2021/11/13 12:33:49;;;;;;;11.55;4.72;;;10.20;95.30;;;;;;5019331;28;20076;-46
2021/11/13 12:36:25;;;;;;;8.20;4.55;;;10.20;95.30;;;;;;5029346;28;20037;-47
2021/11/13 12:38:56;;;;;;;11.00;5.40;;;10.20;95.30;;;;;;5031613;28;20099;-47
2021/11/13 12:41:41;;;;;;;8.98;3.78;;;10.20;95.40;;;;;;5031276;28;20026;-47
2021/11/13 12:44:37;;;;;;;13.95;5.53;;;10.20;95.40;;;;;;5031289;28;20659;-47
2021/11/13 12:47:11;;;;;;;9.15;4.00;;;10.20;95.40;;;;;;5006900;28;20037;-47
2021/11/13 12:49:47;;;;;;;9.48;4.30;;;10.20;95.40;;;;;;5016125;28;20022;-47
2021/11/13 12:52:17;;;;;;;9.15;4.47;;;10.20;95.40;;;;;;5010379;28;20377;-47
2021/11/13 12:54:57;;;;;;;13.77;5.53;;;10.20;95.50;;;;;;5010442;28;20433;-47